Time;durP1;ratioP1;P1;durP2;ratioP2;P2;SDS_P1;SDS_P2;PMS_P1;PMS_P2;Temp;Humidity;BMP_temperature;BMP_pressure;BME280_temperature;BME280_humidity;BME280_pressure;Samples;Min_cycle;Max_cycle;Signal;HPM_P1;HPM_P2
2021/11/22 00:01:11;;;;;;;;;;;6.50;99.90;;;;;;5053622;28;20293;-84
2021/11/22 00:03:39;;;;;;;;;;;6.60;99.90;;;;;;5053998;28;19913;-80
2021/11/22 00:06:14;;;;;;;;;;;6.60;99.90;;;;;;5047289;28;19956;-84
2021/11/22 00:08:41;;;;;;;;;;;6.50;99.90;;;;;;5043758;28;19929;-83
2021/11/22 00:11:08;;;;;;;;;;;6.50;99.90;;;;;;5053370;28;19925;-83
2021/11/22 00:13:34;;;;;;;;;;;6.50;99.90;;;;;;5060852;28;19920;-83
2021/11/22 00:16:01;;;;;;;;;;;6.60;99.90;;;;;;5056581;28;19925;-82
2021/11/22 00:18:29;;;;;;;;;;;6.60;99.90;;;;;;5056295;28;19913;-82
2021/11/22 00:20:55;;;;;;;;;;;6.60;99.90;;;;;;5060105;28;19924;-84
2021/11/22 00:23:25;;;;;;;;;;;6.60;99.90;;;;;;5057046;28;19925;-83
2021/11/22 00:25:52;;;;;;;;;;;6.60;99.90;;;;;;5056265;28;19997;-79
2021/11/22 00:28:18;;;;;;;;;;;6.60;99.90;;;;;;5056684;28;19948;-81
2021/11/22 00:30:45;;;;;;;;;;;6.50;99.90;;;;;;5058377;28;19925;-81
2021/11/22 00:33:13;;;;;;;;;;;6.60;99.90;;;;;;5058808;28;19925;-83
2021/11/22 00:35:41;;;;;;;;;;;6.50;99.90;;;;;;5052733;28;19925;-81
2021/11/22 00:38:08;;;;;;;;;;;6.50;99.90;;;;;;5048718;28;19925;-81
2021/11/22 00:40:38;;;;;;;;;;;6.50;99.90;;;;;;5046609;28;19929;-82
2021/11/22 00:43:05;;;;;;;;;;;6.50;99.90;;;;;;5045185;28;19936;-83
2021/11/22 00:45:34;;;;;;;;;;;6.60;99.90;;;;;;5044798;28;19926;-82
2021/11/22 00:48:01;;;;;;;;;;;6.40;99.90;;;;;;5044797;28;20000;-82
2021/11/22 00:50:28;;;;;;;;;;;6.30;99.90;;;;;;5043270;28;19984;-82
2021/11/22 00:52:55;;;;;;;;;;;6.30;99.90;;;;;;5046807;28;19925;-83
2021/11/22 00:55:23;;;;;;;;;;;6.40;99.90;;;;;;5050064;28;19951;-83
2021/11/22 00:57:51;;;;;;;;;;;6.30;99.90;;;;;;5044231;28;19964;-81
2021/11/22 01:00:23;;;;;;;;;;;6.40;99.90;;;;;;5045912;28;19975;-82
2021/11/22 01:02:50;;;;;;;;;;;6.40;99.90;;;;;;5046725;28;19933;-82
2021/11/22 01:05:16;;;;;;;;;;;6.30;99.90;;;;;;5045071;28;20025;-81
2021/11/22 01:07:43;;;;;;;;;;;6.30;99.90;;;;;;5047526;28;19972;-83
2021/11/22 01:10:11;;;;;;;;;;;6.20;99.90;;;;;;5053008;28;20307;-81
2021/11/22 01:12:38;;;;;;;;;;;6.20;99.90;;;;;;5056188;28;19925;-81
2021/11/22 01:15:08;;;;;;;;;;;6.30;99.90;;;;;;5056904;28;19952;-80
2021/11/22 01:17:35;;;;;;;;;;;6.20;99.90;;;;;;5054846;28;19951;-81
2021/11/22 01:20:02;;;;;;;;;;;6.10;99.90;;;;;;5055761;28;19932;-80
2021/11/22 01:22:28;;;;;;;;;;;6.10;99.90;;;;;;5056350;28;19925;-80
2021/11/22 01:24:56;;;;;;;;;;;6.00;99.90;;;;;;5056695;28;19929;-80
2021/11/22 01:27:23;;;;;;;;;;;5.90;99.90;;;;;;5056928;28;19985;-80
2021/11/22 01:29:49;;;;;;;;;;;5.90;99.90;;;;;;5057027;28;19925;-82
2021/11/22 01:32:18;;;;;;;;;;;5.90;99.90;;;;;;5071698;22;19952;-86
2021/11/22 01:34:44;;;;;;;;;;;5.90;99.90;;;;;;5049684;28;19929;-85
2021/11/22 01:37:11;;;;;;;;;;;6.00;99.90;;;;;;5049516;28;19925;-85
2021/11/22 01:39:38;;;;;;;;;;;6.40;99.90;;;;;;5054084;28;19920;-85
2021/11/22 01:42:05;;;;;;;;;;;5.90;99.90;;;;;;5060769;28;19909;-84
2021/11/22 01:44:31;;;;;;;;;;;5.90;99.90;;;;;;5058229;28;19925;-84
2021/11/22 01:46:58;;;;;;;;;;;5.90;99.90;;;;;;5046247;28;19960;-86
2021/11/22 01:49:26;;;;;;;;;;;6.10;99.90;;;;;;5048699;28;19967;-86
2021/11/22 01:51:53;;;;;;;;;;;6.10;99.90;;;;;;5049112;28;19932;-85
2021/11/22 01:54:19;;;;;;;;;;;6.10;99.90;;;;;;5049771;28;19925;-86
2021/11/22 01:56:47;;;;;;;;;;;6.00;99.90;;;;;;5049161;28;19926;-87
2021/11/22 01:59:14;;;;;;;;;;;5.90;99.90;;;;;;5046510;28;19933;-85
2021/11/22 02:01:42;;;;;;;;;;;5.90;99.90;;;;;;5048262;28;19932;-85
2021/11/22 02:04:09;;;;;;;;;;;5.90;99.90;;;;;;5048474;28;19984;-85
2021/11/22 02:06:37;;;;;;;;;;;5.80;99.90;;;;;;5048392;28;19959;-85
2021/11/22 02:09:05;;;;;;;;;;;5.90;99.90;;;;;;5048431;28;19929;-85
2021/11/22 02:11:31;;;;;;;;;;;5.80;99.90;;;;;;5049804;28;19960;-86
2021/11/22 02:13:58;;;;;;;;;;;5.50;99.90;;;;;;5050327;28;19959;-86
2021/11/22 02:16:25;;;;;;;;;;;5.80;99.90;;;;;;5047159;28;19953;-85
2021/11/22 02:18:52;;;;;;;;;;;5.50;99.90;;;;;;5049647;28;19927;-84
2021/11/22 02:21:20;;;;;;;;;;;5.70;99.90;;;;;;5052325;28;19932;-86
2021/11/22 02:23:46;;;;;;;;;;;5.70;99.90;;;;;;5052408;28;19925;-86
2021/11/22 02:26:13;;;;;;;;;;;5.70;99.90;;;;;;5055497;28;19964;-85
2021/11/22 02:28:40;;;;;;;;;;;5.80;99.90;;;;;;5057589;28;19909;-83
2021/11/22 02:31:07;;;;;;;;;;;5.70;99.90;;;;;;5058820;28;19925;-85
2021/11/22 02:33:34;;;;;;;;;;;5.60;99.90;;;;;;5058616;28;19940;-84
2021/11/22 02:36:01;;;;;;;;;;;5.70;99.90;;;;;;5058309;28;19967;-86
2021/11/22 02:38:31;;;;;;;;;;;5.70;99.90;;;;;;5057764;28;19964;-85
2021/11/22 02:40:57;;;;;;;;;;;5.80;99.90;;;;;;5054799;28;19929;-84
2021/11/22 02:43:24;;;;;;;;;;;5.80;99.90;;;;;;5056726;28;19925;-84
2021/11/22 02:45:51;;;;;;;;;;;5.80;99.90;;;;;;5055878;28;20021;-85
2021/11/22 02:48:18;;;;;;;;;;;6.30;99.90;;;;;;5048798;28;19925;-85
2021/11/22 02:50:45;;;;;;;;;;;5.90;99.90;;;;;;5048205;28;19973;-85
2021/11/22 02:53:12;;;;;;;;;;;5.90;99.90;;;;;;5048102;28;19925;-85
2021/11/22 02:55:41;;;;;;;;;;;6.20;99.90;;;;;;5047707;28;19925;-85
2021/11/22 02:58:08;;;;;;;;;;;5.90;99.90;;;;;;5050452;28;20015;-85
2021/11/22 03:00:36;;;;;;;;;;;5.90;99.90;;;;;;5047926;28;19932;-85
2021/11/22 03:03:02;;;;;;;;;;;5.90;99.90;;;;;;5047453;28;20339;-86
2021/11/22 03:05:29;;;;;;;;;;;5.90;99.90;;;;;;5044636;28;20292;-85
2021/11/22 03:07:57;;;;;;;;;;;5.90;99.90;;;;;;5042687;28;19925;-85
2021/11/22 03:10:25;;;;;;;;;;;5.90;99.90;;;;;;5041685;28;19940;-85
2021/11/22 03:12:54;;;;;;;;;;;5.90;99.90;;;;;;5043409;28;20004;-85
2021/11/22 03:15:22;;;;;;;;;;;6.00;99.90;;;;;;5051324;28;19926;-85
2021/11/22 03:17:49;;;;;;;;;;;6.00;99.90;;;;;;5055906;28;19952;-84
2021/11/22 03:20:17;;;;;;;;;;;6.00;99.90;;;;;;5056925;28;19952;-85
2021/11/22 03:22:44;;;;;;;;;;;6.00;99.90;;;;;;5056597;28;19931;-85
2021/11/22 03:25:12;;;;;;;;;;;6.00;99.90;;;;;;5054579;28;19921;-87
2021/11/22 03:27:39;;;;;;;;;;;6.10;99.90;;;;;;5057285;28;19918;-84
2021/11/22 03:30:07;;;;;;;;;;;6.10;99.90;;;;;;5057532;28;19925;-85
2021/11/22 03:32:34;;;;;;;;;;;6.00;99.90;;;;;;5054036;28;19951;-84
2021/11/22 03:35:01;;;;;;;;;;;6.10;99.90;;;;;;5050419;28;19932;-86
2021/11/22 03:37:28;;;;;;;;;;;6.40;99.90;;;;;;5041685;28;19925;-85
2021/11/22 03:39:55;;;;;;;;;;;6.70;99.90;;;;;;5044833;28;19953;-85
2021/11/22 03:42:23;;;;;;;;;;;6.30;99.90;;;;;;5045991;28;20299;-85
2021/11/22 03:44:50;;;;;;;;;;;6.00;99.90;;;;;;5047713;28;19955;-85
2021/11/22 03:47:18;;;;;;;;;;;6.00;99.90;;;;;;5050541;28;19984;-86
2021/11/22 03:49:45;;;;;;;;;;;6.60;99.90;;;;;;5053047;28;19926;-86
2021/11/22 03:52:11;;;;;;;;;;;5.90;99.90;;;;;;5041717;28;20027;-86
2021/11/22 03:54:38;;;;;;;;;;;6.50;99.90;;;;;;5045673;28;19971;-85
2021/11/22 03:57:06;;;;;;;;;;;6.00;99.90;;;;;;5055330;28;19925;-85
2021/11/22 03:59:34;;;;;;;;;;;6.10;99.90;;;;;;5061724;28;19913;-85
2021/11/22 04:02:01;;;;;;;;;;;6.00;99.90;;;;;;5061078;28;19947;-86
2021/11/22 04:04:29;;;;;;;;;;;6.00;99.90;;;;;;5059916;28;19952;-86
2021/11/22 04:06:56;;;;;;;;;;;6.00;99.90;;;;;;5049986;28;19965;-86
2021/11/22 04:09:23;;;;;;;;;;;6.00;99.90;;;;;;5045689;28;19925;-87
2021/11/22 04:11:49;;;;;;;;;;;6.00;99.90;;;;;;5045411;28;19956;-87
2021/11/22 04:14:16;;;;;;;;;;;5.90;99.90;;;;;;5054877;28;19925;-86
2021/11/22 04:16:43;;;;;;;;;;;5.90;99.90;;;;;;5059965;28;19948;-86
2021/11/22 04:19:10;;;;;;;;;;;5.90;99.90;;;;;;5058896;28;19933;-86
2021/11/22 04:21:38;;;;;;;;;;;5.90;99.90;;;;;;5051312;28;19981;-85
2021/11/22 04:24:05;;;;;;;;;;;5.80;99.90;;;;;;5049611;28;19972;-86
2021/11/22 04:26:32;;;;;;;;;;;5.90;99.90;;;;;;5050162;28;19925;-85
2021/11/22 04:28:59;;;;;;;;;;;6.00;99.90;;;;;;5049089;28;19925;-85
2021/11/22 04:31:26;;;;;;;;;;;6.00;99.90;;;;;;5048637;28;19951;-87
2021/11/22 04:33:52;;;;;;;;;;;6.00;99.90;;;;;;5047790;28;20362;-86
2021/11/22 04:36:19;;;;;;;;;;;6.00;99.90;;;;;;5047742;28;19969;-87
2021/11/22 04:38:47;;;;;;;;;;;6.00;99.90;;;;;;5047218;28;19925;-87
2021/11/22 04:41:14;;;;;;;;;;;6.00;99.90;;;;;;5053902;28;19936;-86
2021/11/22 04:43:41;;;;;;;;;;;6.50;99.90;;;;;;5050987;28;20360;-86
2021/11/22 04:46:07;;;;;;;;;;;6.10;99.90;;;;;;5050971;28;19964;-86
2021/11/22 04:48:34;;;;;;;;;;;6.10;99.90;;;;;;5060885;28;19925;-85
2021/11/22 04:51:01;;;;;;;;;;;6.10;99.90;;;;;;5060584;28;19913;-85
2021/11/22 04:53:27;;;;;;;;;;;6.00;99.90;;;;;;5060689;28;19925;-85
2021/11/22 04:55:55;;;;;;;;;;;6.10;99.90;;;;;;5059526;28;19921;-85
2021/11/22 04:58:22;;;;;;;;;;;6.10;99.90;;;;;;5060048;28;19925;-86
2021/11/22 05:00:49;;;;;;;;;;;6.00;99.90;;;;;;5059700;28;20032;-86
2021/11/22 05:03:16;;;;;;;;;;;6.00;99.90;;;;;;5060240;28;19916;-86
2021/11/22 05:05:42;;;;;;;;;;;6.00;99.90;;;;;;5054903;28;20023;-86
2021/11/22 05:08:10;;;;;;;;;;;6.10;99.90;;;;;;5056063;28;19956;-86
2021/11/22 05:10:38;;;;;;;;;;;5.90;99.90;;;;;;5055819;28;20004;-86
2021/11/22 05:13:07;;;;;;;;;;;5.90;99.90;;;;;;5054115;28;19931;-86
2021/11/22 05:15:34;;;;;;;;;;;5.90;99.90;;;;;;5056279;28;20345;-86
2021/11/22 05:18:01;;;;;;;;;;;5.80;99.90;;;;;;5053432;28;19925;-87
2021/11/22 05:20:29;;;;;;;;;;;5.90;99.90;;;;;;5053579;28;19913;-85
2021/11/22 05:22:56;;;;;;;;;;;5.80;99.90;;;;;;5060831;28;19913;-85
2021/11/22 05:25:23;;;;;;;;;;;5.80;99.90;;;;;;5059689;28;19909;-86
2021/11/22 05:27:49;;;;;;;;;;;6.20;99.90;;;;;;5040962;28;19925;-85
2021/11/22 05:30:18;;;;;;;;;;;5.60;99.90;;;;;;5043339;28;19932;-84
2021/11/22 05:32:47;;;;;;;;;;;5.50;99.90;;;;;;5046732;28;19928;-85
2021/11/22 05:35:13;;;;;;;;;;;5.50;99.90;;;;;;5046694;28;20012;-86
2021/11/22 05:37:41;;;;;;;;;;;5.60;99.90;;;;;;5045420;28;20008;-86
2021/11/22 05:40:08;;;;;;;;;;;6.00;99.90;;;;;;5050799;28;19920;-86
2021/11/22 05:42:35;;;;;;;;;;;5.40;99.90;;;;;;5059975;28;19909;-86
2021/11/22 05:45:02;;;;;;;;;;;5.40;99.90;;;;;;5059615;28;19932;-86
2021/11/22 05:47:31;;;;;;;;;;;5.30;99.90;;;;;;5059183;28;19931;-86
2021/11/22 05:50:03;;;;;;;;;;;5.30;99.90;;;;;;5059807;28;19913;-84
2021/11/22 05:52:31;;;;;;;;;;;5.20;99.90;;;;;;5058076;28;19925;-85
2021/11/22 05:54:58;;;;;;;;;;;5.30;99.90;;;;;;5055275;28;19931;-85
2021/11/22 05:57:25;;;;;;;;;;;5.10;99.90;;;;;;5052493;28;19972;-84
2021/11/22 05:59:52;;;;;;;;;;;5.20;99.90;;;;;;5052456;28;19953;-86
2021/11/22 06:02:21;;;;;;;;;;;5.10;99.90;;;;;;5052438;28;19960;-84
2021/11/22 06:04:50;;;;;;;;;;;5.10;99.90;;;;;;5052891;28;19925;-84
2021/11/22 06:07:16;;;;;;;;;;;5.10;99.90;;;;;;5050370;28;19936;-85
2021/11/22 06:09:43;;;;;;;;;;;5.10;99.90;;;;;;5048546;28;19932;-85
2021/11/22 06:12:10;;;;;;;;;;;5.00;99.90;;;;;;5049396;28;19937;-84
2021/11/22 06:14:36;;;;;;;;;;;5.00;99.90;;;;;;5049043;28;19925;-85
2021/11/22 06:17:03;;;;;;;;;;;5.00;99.90;;;;;;5048481;28;19925;-84
2021/11/22 06:19:30;;;;;;;;;;;4.90;99.90;;;;;;5052663;28;19909;-85
2021/11/22 06:21:58;;;;;;;;;;;4.90;99.90;;;;;;5054405;28;20051;-84
2021/11/22 06:24:25;;;;;;;;;;;5.10;99.90;;;;;;5048081;28;19929;-84
2021/11/22 06:26:54;;;;;;;;;;;5.10;99.90;;;;;;5049241;28;19965;-84
2021/11/22 06:29:21;;;;;;;;;;;5.10;99.90;;;;;;5047463;28;20474;-84
2021/11/22 06:31:48;;;;;;;;;;;5.00;99.90;;;;;;5047663;28;19925;-84
2021/11/22 06:34:15;;;;;;;;;;;4.90;99.90;;;;;;5047590;28;19929;-84
2021/11/22 06:36:41;;;;;;;;;;;4.90;99.90;;;;;;5047653;28;19925;-84
2021/11/22 06:39:09;;;;;;;;;;;4.80;99.90;;;;;;5047499;28;19925;-84
2021/11/22 06:41:36;;;;;;;;;;;4.80;99.90;;;;;;5047395;28;19933;-84
2021/11/22 06:44:03;;;;;;;;;;;5.40;99.90;;;;;;5050974;28;20004;-84
2021/11/22 06:46:30;;;;;;;;;;;4.70;99.90;;;;;;5055023;28;19925;-83
2021/11/22 06:48:57;;;;;;;;;;;5.30;99.90;;;;;;5050322;28;19925;-85
2021/11/22 06:51:23;;;;;;;;;;;4.70;99.90;;;;;;5048046;28;19985;-83
2021/11/22 06:53:50;;;;;;;;;;;4.70;99.90;;;;;;5048561;28;19925;-84
2021/11/22 06:56:18;;;;;;;;;;;4.70;99.90;;;;;;5047334;28;20367;-85
2021/11/22 06:58:45;;;;;;;;;;;4.70;99.90;;;;;;5048627;28;19929;-84
2021/11/22 07:01:12;;;;;;;;;;;4.60;99.90;;;;;;5048282;28;20331;-85
2021/11/22 07:03:38;;;;;;;;;;;4.60;99.90;;;;;;5046977;28;19948;-84
2021/11/22 07:06:07;;;;;;;;;;;;;;;;;;5047633;28;19948;-85
2021/11/22 07:08:34;;;;;;;;;;;4.60;99.90;;;;;;5049033;28;19948;-82
2021/11/22 07:11:01;;;;;;;;;;;4.60;99.90;;;;;;5054013;28;19933;-83
2021/11/22 07:13:31;;;;;;;;;;;4.60;99.90;;;;;;5057192;28;19960;-84
2021/11/22 07:15:58;;;;;;;;;;;4.60;99.90;;;;;;5058635;28;19909;-84
2021/11/22 07:18:24;;;;;;;;;;;4.60;99.90;;;;;;5058293;28;19936;-83
2021/11/22 07:20:51;;;;;;;;;;;4.60;99.90;;;;;;5046158;28;19948;-83
2021/11/22 07:23:21;;;;;;;;;;;4.50;99.90;;;;;;5044105;28;19980;-83
2021/11/22 07:25:48;;;;;;;;;;;4.50;99.90;;;;;;5049626;28;19932;-85
2021/11/22 07:28:15;;;;;;;;;;;4.50;99.90;;;;;;5051120;28;19929;-84
2021/11/22 07:33:20;;;;;;;;;;;4.50;99.90;;;;;;5072873;28;19925;-82
2021/11/22 07:35:48;;;;;;;;;;;4.50;99.90;;;;;;5074599;28;19963;-83
2021/11/22 07:38:15;;;;;;;;;;;4.40;99.90;;;;;;5070782;28;19947;-84
2021/11/22 07:40:41;;;;;;;;;;;4.50;99.90;;;;;;5064187;28;19971;-85
2021/11/22 07:43:11;;;;;;;;;;;4.50;99.90;;;;;;5043139;28;19991;-84
2021/11/22 07:45:38;;;;;;;;;;;4.50;99.90;;;;;;5042196;28;19947;-85
2021/11/22 07:48:05;;;;;;;;;;;4.50;99.90;;;;;;5043321;28;19926;-83
2021/11/22 07:50:33;;;;;;;;;;;4.50;99.90;;;;;;5051139;28;19952;-83
2021/11/22 07:53:00;;;;;;;;;;;4.60;99.90;;;;;;5057480;28;19912;-82
2021/11/22 07:55:27;;;;;;;;;;;4.60;99.90;;;;;;5058475;28;19936;-84
2021/11/22 07:57:54;;;;;;;;;;;4.70;99.90;;;;;;5056650;28;19924;-82
2021/11/22 08:00:23;;;;;;;;;;;4.60;99.90;;;;;;5049994;28;19959;-84
2021/11/22 08:02:50;;;;;;;;;;;4.60;99.90;;;;;;5047194;28;19968;-84
2021/11/22 08:05:16;;;;;;;;;;;4.60;99.90;;;;;;5045044;28;19935;-83
2021/11/22 08:07:44;;;;;;;;;;;4.50;99.90;;;;;;5044067;28;19964;-83
2021/11/22 08:10:26;;;;;;;;;;;4.60;99.90;;;;;;5045985;28;19968;-82
2021/11/22 08:12:53;;;;;;;;;;;4.60;99.90;;;;;;5051196;28;19993;-84
2021/11/22 08:15:20;;;;;;;;;;;4.70;99.90;;;;;;5049807;28;19925;-85
2021/11/22 08:17:47;;;;;;;;;;;4.60;99.90;;;;;;5044388;28;19931;-84
2021/11/22 08:20:15;;;;;;;;;;;4.70;99.90;;;;;;5046064;28;19967;-84
2021/11/22 08:22:47;;;;;;;;;;;4.70;99.90;;;;;;5043755;28;19925;-82
2021/11/22 08:25:14;;;;;;;;;;;4.70;99.90;;;;;;5046318;28;19925;-82
2021/11/22 08:27:41;;;;;;;;;;;4.60;99.90;;;;;;5053206;28;20015;-83
2021/11/22 08:30:09;;;;;;;;;;;4.50;99.90;;;;;;5043214;28;20344;-84
2021/11/22 08:32:36;;;;;;;;;;;4.70;99.90;;;;;;5042584;28;20043;-84
2021/11/22 08:35:03;;;;;;;;;;;4.60;99.90;;;;;;5044541;28;19951;-84
2021/11/22 08:37:30;;;;;;;;;;;4.70;99.90;;;;;;5045679;28;19932;-84
2021/11/22 08:39:58;;;;;;;;;;;4.80;99.90;;;;;;5044225;28;20328;-84
2021/11/22 08:42:25;;;;;;;;;;;4.90;99.90;;;;;;5044346;28;19968;-84
2021/11/22 08:44:52;;;;;;;;;;;4.90;99.90;;;;;;5043413;28;19975;-84
2021/11/22 08:47:18;;;;;;;;;;;5.00;99.90;;;;;;5044194;28;19962;-86
2021/11/22 08:49:50;;;;;;;;;;;5.00;99.90;;;;;;5044814;28;20303;-85
2021/11/22 08:52:18;;;;;;;;;;;5.00;99.90;;;;;;5046146;28;19991;-85
2021/11/22 08:54:45;;;;;;;;;;;5.00;99.90;;;;;;5043055;28;19932;-84
2021/11/22 08:57:13;;;;;;;;;;;5.00;99.90;;;;;;5047588;28;19925;-85
2021/11/22 08:59:41;;;;;;;;;;;5.20;99.90;;;;;;5047540;28;19925;-82
2021/11/22 09:02:08;;;;;;;;;;;5.10;99.90;;;;;;5052965;28;19925;-82
2021/11/22 09:04:35;;;;;;;;;;;5.10;99.90;;;;;;5049605;28;19967;-84
2021/11/22 09:07:01;;;;;;;;;;;5.10;99.90;;;;;;5047616;28;19926;-85
2021/11/22 09:09:28;;;;;;;;;;;5.00;99.90;;;;;;5046651;28;20338;-84
2021/11/22 09:11:55;;;;;;;;;;;4.90;99.90;;;;;;5045375;28;19932;-84
2021/11/22 09:14:23;;;;;;;;;;;5.00;99.90;;;;;;5044478;28;19948;-85
2021/11/22 09:16:50;;;;;;;;;;;4.90;99.90;;;;;;5043815;28;20455;-85
2021/11/22 09:19:17;;;;;;;;;;;5.10;99.90;;;;;;5043048;28;19925;-85
2021/11/22 09:21:43;;;;;;;;;;;5.00;99.90;;;;;;5045062;28;19973;-84
2021/11/22 09:24:10;;;;;;;;;;;5.50;99.90;;;;;;5052839;28;19940;-82
2021/11/22 09:26:37;;;;;;;;;;;5.20;99.90;;;;;;5055140;28;19960;-82
2021/11/22 09:29:05;;;;;;;;;;;5.10;99.90;;;;;;5049247;28;19964;-84
2021/11/22 09:31:33;;;;;;;;;;;5.20;99.90;;;;;;5049538;28;19961;-83
2021/11/22 09:34:00;;;;;;;;;;;5.10;99.90;;;;;;5048318;28;19971;-85
2021/11/22 09:36:27;;;;;;;;;;;5.30;99.90;;;;;;5044990;28;19967;-84
2021/11/22 09:38:54;;;;;;;;;;;5.30;99.90;;;;;;5045577;28;19952;-84
2021/11/22 09:41:23;;;;;;;;;;;5.30;99.90;;;;;;5044963;28;19932;-84
2021/11/22 09:43:52;;;;;;;;;;;5.20;99.90;;;;;;5044855;28;20427;-84
2021/11/22 09:46:19;;;;;;;;;;;5.20;99.90;;;;;;5044393;28;19979;-84
2021/11/22 09:48:47;;;;;;;;;;;5.30;99.90;;;;;;5045186;28;19925;-84
2021/11/22 09:51:14;;;;;;;;;;;5.30;99.90;;;;;;5044875;28;19975;-85
2021/11/22 09:53:41;;;;;;;;;;;5.20;99.90;;;;;;5047830;28;19925;-84
2021/11/22 09:56:09;;;;;;;;;;;5.30;99.90;;;;;;5052530;28;19925;-82
2021/11/22 09:58:36;;;;;;;;;;;5.40;99.90;;;;;;5054305;28;19953;-84
2021/11/22 10:01:05;;;;;;;;;;;5.50;99.90;;;;;;5055020;28;19956;-81
2021/11/22 10:03:32;;;;;;;;;;;5.50;99.90;;;;;;5057458;28;19989;-82
2021/11/22 10:06:01;;;;;;;;;;;5.50;99.90;;;;;;5053925;28;19925;-84
2021/11/22 10:08:28;;;;;;;;;;;5.60;99.90;;;;;;5055640;28;19947;-84
2021/11/22 10:10:56;;;;;;;;;;;5.50;99.90;;;;;;5059096;28;19920;-83
2021/11/22 10:13:28;;;;;;;;;;;5.50;99.90;;;;;;5050966;28;19925;-83
2021/11/22 10:15:57;;;;;;;;;;;5.60;99.90;;;;;;5054299;28;19913;-85
2021/11/22 10:18:24;;;;;;;;;;;5.60;99.90;;;;;;5059130;28;19924;-85
2021/11/22 10:20:52;;;;;;;;;;;5.70;99.90;;;;;;5055018;28;19925;-85
2021/11/22 10:23:25;;;;;;;;;;;5.70;99.90;;;;;;5046122;28;19925;-82
2021/11/22 10:25:51;;;;;;;;;;;5.80;99.90;;;;;;5046015;28;19975;-84
2021/11/22 10:28:20;;;;;;;;;;;5.90;99.90;;;;;;5045828;28;19925;-85
2021/11/22 10:30:47;;;;;;;;;;;6.00;99.90;;;;;;5048742;28;19993;-84
2021/11/22 10:33:15;;;;;;;;;;;6.00;99.90;;;;;;5047312;28;19968;-85
2021/11/22 10:35:42;;;;;;;;;;;6.00;99.90;;;;;;5046562;28;19932;-84
2021/11/22 10:38:12;;;;;;;;;;;6.00;99.90;;;;;;5045574;28;20015;-86
2021/11/22 10:40:42;;;;;;;;;;;5.90;99.90;;;;;;5053545;28;19919;-82
2021/11/22 10:43:11;;;;;;;;;;;5.90;99.90;;;;;;5057885;28;20240;-84
2021/11/22 10:45:39;;;;;;;;;;;5.90;99.90;;;;;;5053954;28;19925;-84
2021/11/22 10:48:11;;;;;;;;;;;5.90;99.90;;;;;;5050471;28;19925;-84
2021/11/22 10:50:47;;;;;;;;;;;5.80;99.90;;;;;;5049168;28;19925;-85
2021/11/22 10:53:14;;;;;;;;;;;5.70;99.90;;;;;;5047793;28;19929;-86
2021/11/22 10:55:47;;;;;;;;;;;5.70;99.90;;;;;;5046442;28;19925;-85
2021/11/22 10:58:33;;;;;;;;;;;5.90;99.90;;;;;;5045379;28;20354;-85
2021/11/22 11:01:03;;;;;;;;;;;5.80;99.90;;;;;;5045189;28;20024;-85
2021/11/22 11:03:30;;;;;;;;;;;5.80;99.90;;;;;;5057709;28;19924;-84
2021/11/22 11:05:57;;;;;;;;;;;5.80;99.90;;;;;;5058110;28;19952;-84
2021/11/22 11:08:28;;;;;;;;;;;5.80;99.90;;;;;;5058353;28;19948;-83
2021/11/22 11:11:09;;;;;;;;;;;6.10;99.90;;;;;;5053687;28;20401;-85
2021/11/22 11:13:43;;;;;;;;;;;6.10;99.90;;;;;;5049977;28;19992;-84
2021/11/22 11:16:10;;;;;;;;;;;6.00;99.90;;;;;;5050802;28;19952;-84
2021/11/22 11:18:36;;;;;;;;;;;6.00;99.90;;;;;;5055006;28;19926;-84
2021/11/22 11:21:03;;;;;;;;;;;6.00;99.90;;;;;;5048853;28;19982;-82
2021/11/22 11:23:30;;;;;;;;;;;6.20;99.90;;;;;;5043369;28;19925;-83
2021/11/22 11:25:57;;;;;;;;;;;6.10;99.90;;;;;;5047610;28;19920;-83
2021/11/22 11:28:25;;;;;;;;;;;6.00;99.90;;;;;;5054978;28;19912;-83
2021/11/22 11:30:52;;;;;;;;;;;6.00;99.90;;;;;;5055357;28;19925;-82
2021/11/22 11:33:18;;;;;;;;;;;6.00;99.90;;;;;;5057065;28;19913;-82
2021/11/22 11:35:47;;;;;;;;;;;7.00;99.90;;;;;;5056900;28;20395;-83
2021/11/22 11:38:19;;;;;;;;;;;6.20;99.90;;;;;;5056465;28;19941;-82
2021/11/22 11:40:57;;;;;;;;;;;6.40;99.90;;;;;;5046706;28;19991;-84
2021/11/22 11:43:43;;;;;;;;;;;6.40;99.90;;;;;;5042699;28;19972;-85
2021/11/22 11:46:19;;;;;;;;;;;6.50;99.90;;;;;;5043027;28;19932;-85
2021/11/22 11:48:53;;;;;;;;;;;6.50;99.90;;;;;;5042808;28;19960;-85
2021/11/22 11:51:21;;;;;;;;;;;6.50;99.90;;;;;;5042974;28;19972;-84
2021/11/22 11:54:05;;;;;;;;;;;6.50;99.90;;;;;;5043668;28;20336;-84
2021/11/22 11:56:32;;;;;;;;;;;6.50;99.90;;;;;;5043270;28;19929;-83
2021/11/22 11:59:12;;;;;;;;;;;6.50;99.90;;;;;;5042691;28;19925;-84
2021/11/22 12:01:55;;;;;;;;;;;6.50;99.90;;;;;;5042833;28;19947;-85
2021/11/22 12:04:22;;;;;;;;;;;7.20;99.90;;;;;;5045078;28;19964;-84
2021/11/22 12:06:50;;;;;;;;;;;6.50;99.90;;;;;;5052135;28;19925;-83
2021/11/22 12:09:37;;;;;;;;;;;6.50;99.90;;;;;;5059184;28;19949;-82
2021/11/22 12:12:18;;;;;;;;;;;6.50;99.90;;;;;;5052900;28;19925;-84
2021/11/22 12:14:51;;;;;;;;;;;6.60;99.90;;;;;;5046982;28;20399;-83
2021/11/22 12:17:36;;;;;;;;;;;6.50;99.90;;;;;;5048772;28;19968;-83
2021/11/22 12:20:05;;;;;;;;;;;6.50;99.90;;;;;;5046324;28;20016;-84
2021/11/22 12:22:36;;;;;;;;;;;6.50;99.90;;;;;;5046070;28;19932;-83
2021/11/22 12:25:03;;;;;;;;;;;6.50;99.90;;;;;;5046441;28;19925;-85
2021/11/22 12:27:34;;;;;;;;;;;6.50;99.90;;;;;;5045670;28;20330;-85
2021/11/22 12:30:04;;;;;;;;;;;6.40;99.90;;;;;;5046072;28;19932;-84
2021/11/22 12:32:31;;;;;;;;;;;6.30;99.90;;;;;;5045504;28;19929;-84
2021/11/22 12:34:59;;;;;;;;;;;6.40;99.90;;;;;;5044504;28;19940;-82
2021/11/22 12:37:26;;;;;;;;;;;6.50;99.90;;;;;;5044526;28;19925;-84
2021/11/22 12:39:54;;;;;;;;;;;6.50;99.90;;;;;;5044110;28;19980;-83
2021/11/22 12:42:22;;;;;;;;;;;6.30;99.90;;;;;;5045156;28;19925;-85
2021/11/22 12:45:07;;;;;;;;;;;6.40;99.90;;;;;;5045551;28;19989;-84
2021/11/22 12:47:34;;;;;;;;;;;6.50;99.90;;;;;;5045176;28;19926;-84
2021/11/22 12:50:15;;;;;;;;;;;6.50;99.90;;;;;;5045809;28;19979;-84
2021/11/22 12:52:43;;;;;;;;;;;6.40;99.90;;;;;;5050229;28;19924;-83
2021/11/22 12:55:14;;;;;;;;;;;6.10;99.90;;;;;;5057186;28;19925;-83
2021/11/22 12:57:42;;;;;;;;;;;6.00;99.90;;;;;;5055652;28;19925;-83
2021/11/22 13:00:21;;;;;;;;;;;5.90;99.90;;;;;;5045681;28;19925;-83
2021/11/22 13:02:49;;;;;;;;;;;5.90;99.90;;;;;;5045699;28;19925;-83
2021/11/22 13:05:34;;;;;;;;;;;5.80;99.90;;;;;;5051485;28;19945;-84
2021/11/22 13:08:02;;;;;;;;;;;5.80;99.90;;;;;;5056626;28;19992;-83
2021/11/22 13:10:36;;;;;;;;;;;5.80;99.90;;;;;;5057653;28;19935;-82
2021/11/22 13:13:10;;;;;;;;;;;5.80;99.90;;;;;;5058707;28;19948;-81
2021/11/22 13:15:55;;;;;;;;;;;5.80;99.90;;;;;;5059155;28;19913;-81
2021/11/22 13:18:23;;;;;;;;;;;5.90;99.90;;;;;;5058664;28;19925;-85
2021/11/22 13:20:50;;;;;;;;;;;5.90;99.90;;;;;;5050468;28;19925;-83
2021/11/22 13:23:17;;;;;;;;;;;6.00;99.90;;;;;;5047935;28;20307;-85
2021/11/22 13:25:44;;;;;;;;;;;5.90;99.90;;;;;;5054263;28;19935;-84
2021/11/22 13:28:12;;;;;;;;;;;6.40;99.90;;;;;;5059641;28;19948;-84
2021/11/22 13:30:39;;;;;;;;;;;6.00;99.90;;;;;;5053996;28;19928;-81
2021/11/22 13:33:21;;;;;;;;;;;5.80;99.90;;;;;;5097578;22;19925;-80
2021/11/22 13:35:48;;;;;;;;;;;5.90;99.90;;;;;;5080188;28;19939;-80
2021/11/22 13:38:22;;;;;;;;;;;5.90;99.90;;;;;;5079801;28;19909;-80
2021/11/22 13:40:57;;;;;;;;;;;5.80;99.90;;;;;;5080085;28;19928;-81
2021/11/22 13:43:26;;;;;;;;;;;5.80;99.90;;;;;;5075186;28;19932;-81
2021/11/22 13:45:55;;;;;;;;;;;5.80;99.90;;;;;;5065234;28;19925;-82
2021/11/22 13:48:47;;;;;;;;;;;5.80;99.90;;;;;;5064408;28;19960;-81
2021/11/22 13:51:15;;;;;;;;;;;5.80;99.90;;;;;;5063955;28;19978;-81
2021/11/22 13:53:42;;;;;;;;;;;5.80;99.90;;;;;;5062490;28;19935;-81
2021/11/22 13:56:20;;;;;;;;;;;5.70;99.90;;;;;;5067218;28;19928;-81
2021/11/22 13:58:51;;;;;;;;;;;5.60;99.90;;;;;;5076983;28;19925;-81
2021/11/22 14:01:18;;;;;;;;;;;5.00;99.90;;;;;;5076738;28;19951;-81
2021/11/22 14:03:49;;;;;;;;;;;5.50;99.90;;;;;;5071116;28;19925;-82
2021/11/22 14:06:16;;;;;;;;;;;5.50;99.90;;;;;;5060867;28;19964;-82
2021/11/22 14:08:43;;;;;;;;;;;5.50;99.90;;;;;;5061394;28;19924;-81
2021/11/22 14:11:20;;;;;;;;;;;5.40;99.90;;;;;;5061004;28;20403;-81
2021/11/22 14:13:47;;;;;;;;;;;5.40;99.90;;;;;;5061184;28;19975;-82
2021/11/22 14:16:18;;;;;;;;;;;5.50;99.90;;;;;;5066746;28;19931;-81
2021/11/22 14:18:45;;;;;;;;;;;5.40;99.90;;;;;;5067897;28;19947;-82
2021/11/22 14:21:13;;;;;;;;;;;5.40;99.90;;;;;;5060452;28;19951;-81
2021/11/22 14:23:40;;;;;;;;;;;5.40;99.90;;;;;;5061993;28;19964;-82
2021/11/22 14:26:07;;;;;;;;;;;5.40;99.90;;;;;;5061904;28;20450;-81
2021/11/22 14:28:41;;;;;;;;;;;5.40;99.90;;;;;;5076579;28;19924;-82
2021/11/22 14:31:08;;;;;;;;;;;5.40;99.90;;;;;;5078404;28;19935;-80
2021/11/22 14:33:36;;;;;;;;;;;5.40;99.90;;;;;;5078968;28;19940;-81
2021/11/22 14:36:04;;;;;;;;;;;5.20;99.90;;;;;;5065305;28;19931;-82
2021/11/22 14:38:33;;;;;;;;;;;5.30;99.90;;;;;;5063426;28;19924;-81
2021/11/22 14:41:15;;;;;;;;;;;5.30;99.90;;;;;;5064431;28;20417;-81